createdAt,value
2022-10-26T00:00:51.723Z,8.42
2022-10-26T00:03:19.392Z,8.40
2022-10-26T00:05:45.929Z,8.40
2022-10-26T00:08:12.609Z,8.43
2022-10-26T00:10:39.936Z,8.44
2022-10-26T00:13:10.069Z,8.45
2022-10-26T00:15:40.510Z,8.45
2022-10-26T00:18:06.950Z,8.44
2022-10-26T00:20:33.387Z,8.43
2022-10-26T00:22:59.824Z,8.43
2022-10-26T00:25:26.274Z,8.44
2022-10-26T00:27:53.244Z,8.44
2022-10-26T00:30:19.732Z,8.46
2022-10-26T00:32:46.174Z,8.49
2022-10-26T00:35:22.969Z,8.53
2022-10-26T00:37:54.924Z,8.55
2022-10-26T00:40:21.978Z,8.59
2022-10-26T00:42:48.754Z,8.62
2022-10-26T00:45:26.830Z,8.64
2022-10-26T00:48:03.101Z,8.68
2022-10-26T00:50:36.500Z,8.70
2022-10-26T00:53:06.733Z,8.70
2022-10-26T00:55:37.670Z,8.69
2022-10-26T00:58:07.341Z,8.68
2022-10-26T01:00:34.025Z,8.67
2022-10-26T01:03:06.177Z,8.67
2022-10-26T01:05:35.013Z,8.68
2022-10-26T01:08:02.968Z,8.67
2022-10-26T01:10:30.633Z,8.66
2022-10-26T01:12:58.925Z,8.65
2022-10-26T01:15:37.884Z,8.64
2022-10-26T01:18:29.062Z,8.64
2022-10-26T01:21:14.138Z,8.64
2022-10-26T01:24:02.595Z,8.63
2022-10-26T01:26:53.461Z,8.61
2022-10-26T01:29:40.123Z,8.58
2022-10-26T01:32:14.448Z,8.58
2022-10-26T01:35:10.598Z,8.59
2022-10-26T01:37:44.240Z,8.60
2022-10-26T01:40:24.770Z,8.63
2022-10-26T01:42:55.086Z,8.67
2022-10-26T01:45:21.940Z,8.68
2022-10-26T01:47:50.128Z,8.70
2022-10-26T01:50:19.911Z,8.72
2022-10-26T01:52:50.163Z,8.74
2022-10-26T01:55:38.753Z,8.76
2022-10-26T01:58:39.122Z,8.78
2022-10-26T02:01:18.800Z,8.80
2022-10-26T02:04:14.123Z,8.81
2022-10-26T02:07:08.408Z,8.82
2022-10-26T02:09:57.176Z,8.83
2022-10-26T02:12:51.369Z,8.83
2022-10-26T02:15:42.898Z,8.83
2022-10-26T02:18:15.172Z,8.81
2022-10-26T02:20:49.003Z,8.79
2022-10-26T02:23:16.484Z,8.75
2022-10-26T02:25:50.776Z,8.69
2022-10-26T02:28:26.124Z,8.64
2022-10-26T02:30:56.470Z,8.59
2022-10-26T02:33:26.781Z,8.53
2022-10-26T02:35:55.268Z,8.48
2022-10-26T02:38:24.496Z,8.40
2022-10-26T02:40:52.581Z,8.32
2022-10-26T02:43:20.974Z,8.24
2022-10-26T02:46:02.570Z,8.21
2022-10-26T02:48:29.576Z,8.19
2022-10-26T02:51:01.336Z,8.15
2022-10-26T02:53:40.066Z,8.09
2022-10-26T02:56:21.967Z,8.00
2022-10-26T02:58:59.670Z,7.90
2022-10-26T03:01:28.338Z,7.78
2022-10-26T03:03:59.043Z,7.69
2022-10-26T03:06:26.546Z,7.61
2022-10-26T03:08:53.076Z,7.55
2022-10-26T03:11:19.695Z,7.52
2022-10-26T03:13:46.391Z,7.51
2022-10-26T03:16:12.932Z,7.54
2022-10-26T03:18:39.509Z,7.56
2022-10-26T03:21:06.427Z,7.53
2022-10-26T03:23:33.103Z,7.48
2022-10-26T03:25:59.985Z,7.42
2022-10-26T03:28:26.567Z,7.41
2022-10-26T03:30:53.196Z,7.36
2022-10-26T03:33:21.567Z,7.34
2022-10-26T03:35:57.414Z,7.31
2022-10-26T03:38:23.967Z,7.28
2022-10-26T03:40:50.433Z,7.25
2022-10-26T03:43:16.969Z,7.21
2022-10-26T03:45:43.513Z,7.17
2022-10-26T03:48:09.960Z,7.16
2022-10-26T03:50:36.493Z,7.15
2022-10-26T03:53:03.375Z,7.14
2022-10-26T03:55:30.015Z,7.12
2022-10-26T03:57:56.828Z,7.09
2022-10-26T04:00:23.368Z,7.04
2022-10-26T04:02:58.682Z,6.99
2022-10-26T04:05:27.099Z,6.96
2022-10-26T04:07:58.595Z,6.92
2022-10-26T04:10:27.248Z,6.89
2022-10-26T04:12:54.750Z,6.86
2022-10-26T04:15:22.278Z,6.85
2022-10-26T04:17:54.967Z,6.85
2022-10-26T04:20:21.408Z,6.85
2022-10-26T04:22:47.945Z,6.87
2022-10-26T04:25:14.563Z,6.87
2022-10-26T04:27:40.983Z,6.88
2022-10-26T04:30:08.338Z,6.87
2022-10-26T04:32:34.834Z,6.88
2022-10-26T04:35:01.362Z,6.88
2022-10-26T04:37:27.908Z,6.86
2022-10-26T04:39:54.479Z,6.83
2022-10-26T04:42:20.980Z,6.79
2022-10-26T04:44:47.546Z,6.75
2022-10-26T04:47:13.985Z,6.69
2022-10-26T04:49:40.496Z,6.65
2022-10-26T04:52:07.032Z,6.60
2022-10-26T04:54:33.577Z,6.55
2022-10-26T04:57:00.176Z,6.49
2022-10-26T04:59:27.169Z,6.43
2022-10-26T05:01:53.813Z,6.36
2022-10-26T05:04:20.456Z,6.28
2022-10-26T05:06:47.096Z,6.22
2022-10-26T05:09:13.841Z,6.18
2022-10-26T05:11:40.281Z,6.15
2022-10-26T05:14:06.755Z,6.13
2022-10-26T05:16:33.188Z,6.14
2022-10-26T05:18:59.696Z,6.21
2022-10-26T05:21:26.236Z,6.26
2022-10-26T05:23:53.326Z,6.27
2022-10-26T05:26:20.346Z,6.26
2022-10-26T05:28:46.890Z,6.26
2022-10-26T05:31:13.833Z,6.27
2022-10-26T05:33:40.373Z,6.28
2022-10-26T05:36:07.323Z,6.31
2022-10-26T05:38:33.887Z,6.37
2022-10-26T05:41:00.524Z,6.40
2022-10-26T05:43:27.770Z,6.43
2022-10-26T05:45:54.741Z,6.44
2022-10-26T05:48:21.668Z,6.46
2022-10-26T05:50:48.412Z,6.49
2022-10-26T05:53:15.367Z,6.56
2022-10-26T05:55:42.729Z,6.66
2022-10-26T05:58:14.125Z,6.77
2022-10-26T06:00:47.281Z,6.84
2022-10-26T06:03:38.804Z,6.94
2022-10-26T06:06:07.506Z,7.12
2022-10-26T06:08:34.134Z,7.27
2022-10-26T06:11:01.184Z,7.49
2022-10-26T06:13:28.134Z,7.79
2022-10-26T06:16:06.757Z,8.06
2022-10-26T06:18:42.926Z,8.31
2022-10-26T06:21:28.137Z,8.56
2022-10-26T06:24:30.070Z,8.79
2022-10-26T06:27:17.041Z,9.18
2022-10-26T06:29:48.954Z,9.58
2022-10-26T06:32:16.893Z,9.88
2022-10-26T06:34:47.046Z,10.07
2022-10-26T06:37:14.100Z,10.14
2022-10-26T06:39:48.765Z,10.18
2022-10-26T06:42:18.246Z,10.34
2022-10-26T06:44:45.102Z,10.59
2022-10-26T06:47:23.413Z,10.63
2022-10-26T06:50:16.370Z,10.77
2022-10-26T06:53:10.159Z,11.00
2022-10-26T06:55:46.073Z,11.42
2022-10-26T06:58:19.640Z,11.81
2022-10-26T07:00:49.351Z,12.12
2022-10-26T07:03:16.676Z,12.40
2022-10-26T07:05:44.993Z,12.63
2022-10-26T07:08:12.551Z,12.77
2022-10-26T07:10:39.286Z,12.94
2022-10-26T07:13:07.040Z,13.20
2022-10-26T07:15:34.879Z,13.43
2022-10-26T07:18:03.719Z,13.61
2022-10-26T07:20:30.228Z,13.82
2022-10-26T07:22:57.521Z,14.00
2022-10-26T07:25:25.937Z,14.00
2022-10-26T07:27:52.567Z,14.08
2022-10-26T07:30:19.263Z,14.23
2022-10-26T07:32:45.928Z,14.26
2022-10-26T07:35:12.686Z,14.53
2022-10-26T07:37:39.190Z,14.68
2022-10-26T07:40:07.102Z,14.69
2022-10-26T07:42:34.930Z,14.58
2022-10-26T07:45:01.467Z,14.34
2022-10-26T07:47:28.009Z,14.17
2022-10-26T07:49:54.553Z,14.10
2022-10-26T07:52:21.091Z,13.81
2022-10-26T07:54:47.623Z,13.56
2022-10-26T07:57:16.424Z,13.25
2022-10-26T07:59:42.963Z,12.97
2022-10-26T08:02:10.250Z,12.96
2022-10-26T08:04:36.783Z,12.93
2022-10-26T08:07:03.282Z,13.06
2022-10-26T08:09:29.822Z,13.18
2022-10-26T08:11:56.372Z,13.27
2022-10-26T08:14:22.910Z,13.46
2022-10-26T08:16:49.655Z,13.70
2022-10-26T08:19:16.127Z,13.92
2022-10-26T08:21:42.630Z,14.02
2022-10-26T08:24:09.376Z,14.11
2022-10-26T08:26:36.331Z,14.30
2022-10-26T08:29:02.878Z,14.50
2022-10-26T08:31:30.944Z,14.67
2022-10-26T08:33:57.456Z,14.78
2022-10-26T08:36:25.978Z,14.78
2022-10-26T08:38:52.435Z,14.90
2022-10-26T08:41:35.846Z,15.09
2022-10-26T08:44:13.455Z,15.30
2022-10-26T08:46:45.169Z,15.48
2022-10-26T08:49:20.773Z,15.58
2022-10-26T08:51:50.678Z,15.74
2022-10-26T08:54:34.634Z,16.01
2022-10-26T08:57:04.667Z,16.23
2022-10-26T08:59:43.993Z,16.42
2022-10-26T09:02:15.075Z,16.56
2022-10-26T09:04:42.091Z,16.65
2022-10-26T09:07:30.136Z,16.72
2022-10-26T09:10:15.655Z,16.99
2022-10-26T09:12:58.272Z,17.30
2022-10-26T09:16:05.654Z,17.52
2022-10-26T09:18:51.028Z,17.44
2022-10-26T09:21:34.677Z,17.32
2022-10-26T09:24:13.348Z,17.30
2022-10-26T09:27:11.892Z,17.15
2022-10-26T09:29:43.105Z,17.25
2022-10-26T09:32:25.383Z,17.47
2022-10-26T09:35:00.142Z,17.56
2022-10-26T09:37:40.246Z,17.53
2022-10-26T09:40:18.326Z,17.71
2022-10-26T09:43:14.300Z,17.91
2022-10-26T09:45:51.054Z,17.94
2022-10-26T09:48:35.438Z,18.02
2022-10-26T09:51:04.694Z,18.09
2022-10-26T09:53:32.190Z,18.13
2022-10-26T09:56:05.850Z,18.25
2022-10-26T09:58:40.918Z,18.23
2022-10-26T10:01:07.693Z,18.35
2022-10-26T10:03:34.128Z,18.43
2022-10-26T10:06:20.958Z,18.41
2022-10-26T10:09:10.566Z,18.50
2022-10-26T10:11:50.817Z,18.54
2022-10-26T10:14:17.513Z,18.58
2022-10-26T10:17:05.699Z,18.55
2022-10-26T10:19:34.304Z,18.40
2022-10-26T10:22:09.092Z,18.30
2022-10-26T10:24:39.964Z,18.01
2022-10-26T10:27:18.653Z,17.72
2022-10-26T10:29:54.407Z,17.56
2022-10-26T10:32:30.477Z,17.45
2022-10-26T10:34:59.506Z,17.35
2022-10-26T10:37:37.217Z,17.31
2022-10-26T10:40:06.983Z,17.38
2022-10-26T10:42:38.338Z,17.35
2022-10-26T10:45:06.934Z,17.39
2022-10-26T10:47:36.584Z,17.52
2022-10-26T10:50:19.771Z,17.71
2022-10-26T10:52:46.796Z,17.83
2022-10-26T10:55:13.359Z,17.94
2022-10-26T10:57:51.754Z,18.05
2022-10-26T11:00:20.382Z,18.18
2022-10-26T11:03:24.966Z,18.28
2022-10-26T11:05:58.917Z,18.26
2022-10-26T11:08:35.331Z,18.09
2022-10-26T11:11:11.782Z,18.14
2022-10-26T11:13:51.492Z,18.06
2022-10-26T11:16:31.475Z,18.09
2022-10-26T11:19:04.747Z,18.16
2022-10-26T11:21:34.714Z,18.20
2022-10-26T11:24:12.528Z,18.30
2022-10-26T11:26:55.118Z,18.49
2022-10-26T11:29:29.027Z,18.64
2022-10-26T11:32:03.802Z,18.74
2022-10-26T11:34:40.850Z,18.92
2022-10-26T11:37:25.720Z,19.03
2022-10-26T11:39:58.301Z,19.18
2022-10-26T11:42:45.959Z,19.21
2022-10-26T11:45:43.274Z,18.92
2022-10-26T11:48:36.668Z,18.68
2022-10-26T11:51:04.977Z,18.77
2022-10-26T11:53:39.478Z,18.70
2022-10-26T11:56:16.973Z,18.68
2022-10-26T11:58:45.152Z,18.65
2022-10-26T12:01:15.514Z,18.71
2022-10-26T12:03:46.328Z,18.88
2022-10-26T12:06:15.032Z,19.01
2022-10-26T12:08:51.089Z,19.11
2022-10-26T12:11:46.297Z,19.20
2022-10-26T12:14:24.605Z,19.18
2022-10-26T12:17:12.344Z,19.13
2022-10-26T12:19:51.441Z,19.15
2022-10-26T12:22:20.037Z,19.08
2022-10-26T12:25:04.559Z,18.97
2022-10-26T12:27:39.920Z,18.93
2022-10-26T12:30:12.218Z,18.80
2022-10-26T12:32:41.536Z,18.68
2022-10-26T12:35:33.876Z,18.64
2022-10-26T12:38:02.841Z,18.62
2022-10-26T12:40:43.579Z,18.60
2022-10-26T12:43:16.185Z,18.46
2022-10-26T12:45:47.237Z,18.34
2022-10-26T12:48:39.718Z,18.37
2022-10-26T12:51:21.822Z,18.33
2022-10-26T12:54:07.146Z,18.24
2022-10-26T12:56:49.243Z,18.14
2022-10-26T12:59:25.183Z,17.96
2022-10-26T13:01:57.633Z,17.82
2022-10-26T13:04:53.564Z,17.76
2022-10-26T13:07:33.183Z,17.77
2022-10-26T13:10:11.946Z,17.84
2022-10-26T13:12:55.722Z,17.86
2022-10-26T13:15:31.888Z,17.84
2022-10-26T13:18:07.066Z,17.76
2022-10-26T13:20:36.250Z,17.69
2022-10-26T13:23:25.770Z,17.65
2022-10-26T13:26:09.070Z,17.57
2022-10-26T13:28:38.271Z,17.53
2022-10-26T13:31:11.364Z,17.50
2022-10-26T13:33:41.722Z,17.49
2022-10-26T13:36:18.150Z,17.44
2022-10-26T13:38:47.722Z,17.41
2022-10-26T13:41:32.949Z,17.38
2022-10-26T13:44:04.086Z,17.36
2022-10-26T13:46:35.890Z,17.31
2022-10-26T13:49:25.024Z,17.26
2022-10-26T13:51:53.110Z,17.23
2022-10-26T13:54:30.085Z,17.20
2022-10-26T13:57:04.195Z,17.18
2022-10-26T13:59:33.594Z,17.19
2022-10-26T14:02:26.763Z,17.21
2022-10-26T14:04:59.942Z,17.19
2022-10-26T14:07:36.177Z,17.22
2022-10-26T14:10:04.311Z,17.27
2022-10-26T14:12:31.714Z,17.40
2022-10-26T14:15:08.303Z,17.57
2022-10-26T14:17:35.098Z,17.65
2022-10-26T14:20:04.289Z,17.64
2022-10-26T14:22:30.848Z,17.84
2022-10-26T14:24:59.606Z,18.20
2022-10-26T14:27:31.908Z,18.62
2022-10-26T14:30:20.934Z,18.77
2022-10-26T14:32:45.481Z,18.72
2022-10-26T14:35:13.559Z,18.58
2022-10-26T14:37:53.245Z,18.77
2022-10-26T14:40:23.236Z,19.04
2022-10-26T14:42:54.062Z,19.14
2022-10-26T14:45:51.565Z,18.87
2022-10-26T14:48:42.035Z,18.48
2022-10-26T14:51:17.013Z,18.18
2022-10-26T14:53:53.038Z,17.93
2022-10-26T14:56:25.755Z,17.66
2022-10-26T14:58:53.403Z,17.36
2022-10-26T15:01:23.255Z,17.11
2022-10-26T15:04:02.795Z,16.87
2022-10-26T15:06:29.285Z,16.64
2022-10-26T15:09:00.201Z,16.46
2022-10-26T15:11:27.221Z,16.29
2022-10-26T15:13:55.750Z,16.12
2022-10-26T15:16:25.459Z,15.96
2022-10-26T15:19:16.589Z,15.80
2022-10-26T15:21:48.682Z,15.62
2022-10-26T15:24:21.290Z,15.42
2022-10-26T15:26:48.306Z,15.22
2022-10-26T15:29:34.700Z,15.02
2022-10-26T15:32:02.448Z,14.82
2022-10-26T15:34:29.353Z,14.64
2022-10-26T15:36:56.345Z,14.46
2022-10-26T15:39:22.904Z,14.29
2022-10-26T15:41:49.643Z,14.12
2022-10-26T15:44:21.708Z,13.94
2022-10-26T15:46:49.890Z,13.77
2022-10-26T15:49:19.578Z,13.59
2022-10-26T15:51:48.223Z,13.41
2022-10-26T15:54:15.448Z,13.25
2022-10-26T15:56:42.911Z,13.10
2022-10-26T15:59:18.154Z,12.97
2022-10-26T16:01:45.187Z,12.82
2022-10-26T16:04:11.882Z,12.67
2022-10-26T16:06:40.321Z,12.54
2022-10-26T16:09:14.858Z,12.41
2022-10-26T16:11:42.264Z,12.26
2022-10-26T16:14:10.393Z,12.14
2022-10-26T16:16:37.198Z,12.04
2022-10-26T16:19:29.140Z,11.94
2022-10-26T16:21:53.563Z,11.86
2022-10-26T16:24:20.475Z,11.77
2022-10-26T16:26:47.051Z,11.70
2022-10-26T16:29:13.694Z,11.64
2022-10-26T16:31:40.338Z,11.57
2022-10-26T16:34:06.749Z,11.50
2022-10-26T16:36:33.212Z,11.43
2022-10-26T16:38:59.789Z,11.36
2022-10-26T16:41:26.590Z,11.28
2022-10-26T16:43:53.029Z,11.22
2022-10-26T16:46:21.220Z,11.15
2022-10-26T16:48:49.692Z,11.09
2022-10-26T16:51:24.663Z,11.02
2022-10-26T16:53:53.011Z,10.94
2022-10-26T16:56:22.030Z,10.88
2022-10-26T16:58:49.095Z,10.83
2022-10-26T17:01:17.936Z,10.79
2022-10-26T17:03:49.060Z,10.76
2022-10-26T17:06:16.869Z,10.69
2022-10-26T17:08:44.328Z,10.64
2022-10-26T17:11:14.053Z,10.63
2022-10-26T17:13:40.997Z,10.62
2022-10-26T17:16:11.139Z,10.60
2022-10-26T17:18:39.600Z,10.55
2022-10-26T17:21:06.893Z,10.49
2022-10-26T17:23:33.404Z,10.42
2022-10-26T17:26:08.547Z,10.37
2022-10-26T17:28:35.964Z,10.30
2022-10-26T17:31:09.624Z,10.24
2022-10-26T17:33:37.907Z,10.18
2022-10-26T17:36:06.515Z,10.12
2022-10-26T17:38:38.648Z,10.06
2022-10-26T17:41:08.167Z,9.97
2022-10-26T17:43:37.066Z,9.87
2022-10-26T17:46:06.416Z,9.79
2022-10-26T17:48:33.440Z,9.73
2022-10-26T17:51:01.908Z,9.67
2022-10-26T17:53:29.679Z,9.64
2022-10-26T17:56:04.833Z,9.62
2022-10-26T17:58:32.895Z,9.57
2022-10-26T18:01:04.584Z,9.50
2022-10-26T18:03:31.510Z,9.41
2022-10-26T18:05:58.259Z,9.32
2022-10-26T18:08:25.001Z,9.19
2022-10-26T18:10:54.921Z,9.10
2022-10-26T18:13:21.834Z,9.02
2022-10-26T18:15:48.311Z,8.93
2022-10-26T18:18:14.852Z,8.84
2022-10-26T18:20:41.393Z,8.76
2022-10-26T18:23:07.928Z,8.71
2022-10-26T18:25:34.578Z,8.66
2022-10-26T18:28:01.167Z,8.59
2022-10-26T18:30:27.771Z,8.51
2022-10-26T18:32:54.485Z,8.43
2022-10-26T18:35:21.711Z,8.39
2022-10-26T18:37:48.615Z,8.34
2022-10-26T18:40:15.553Z,8.29
2022-10-26T18:42:42.399Z,8.23
2022-10-26T18:45:09.471Z,8.14
2022-10-26T18:47:35.996Z,8.09
2022-10-26T18:50:02.471Z,8.04
2022-10-26T18:52:28.974Z,7.95
2022-10-26T18:54:55.715Z,7.87
2022-10-26T18:57:22.871Z,7.83
2022-10-26T18:59:53.944Z,7.81
2022-10-26T19:02:22.425Z,7.75
2022-10-26T19:04:49.145Z,7.69
2022-10-26T19:07:15.683Z,7.62
2022-10-26T19:09:42.942Z,7.55
2022-10-26T19:12:09.582Z,7.48
2022-10-26T19:14:36.230Z,7.46
2022-10-26T19:17:02.740Z,7.53
2022-10-26T19:19:29.273Z,7.59
2022-10-26T19:21:56.049Z,7.58
2022-10-26T19:24:23.653Z,7.55
2022-10-26T19:26:51.079Z,7.48
2022-10-26T19:29:19.053Z,7.39
2022-10-26T19:31:46.324Z,7.32
2022-10-26T19:34:15.040Z,7.30
2022-10-26T19:36:41.875Z,7.28
2022-10-26T19:39:08.387Z,7.23
2022-10-26T19:41:34.924Z,7.16
2022-10-26T19:44:01.672Z,7.08
2022-10-26T19:46:29.672Z,7.03
2022-10-26T19:48:59.083Z,7.03
2022-10-26T19:51:27.675Z,7.03
2022-10-26T19:53:57.789Z,7.00
2022-10-26T19:56:27.174Z,7.04
2022-10-26T19:58:53.620Z,7.05
2022-10-26T20:01:20.100Z,7.06
2022-10-26T20:03:46.695Z,7.09
2022-10-26T20:06:13.239Z,7.04
2022-10-26T20:08:41.823Z,6.99
2022-10-26T20:11:13.153Z,6.93
2022-10-26T20:13:43.249Z,6.89
2022-10-26T20:16:10.566Z,6.86
2022-10-26T20:18:37.000Z,6.83
2022-10-26T20:21:11.154Z,6.78
2022-10-26T20:23:37.660Z,6.75
2022-10-26T20:28:35.910Z,6.69
2022-10-26T20:31:02.407Z,6.66
2022-10-26T20:33:29.449Z,6.63
2022-10-26T20:36:00.237Z,6.59
2022-10-26T20:38:27.561Z,6.55
2022-10-26T20:40:59.210Z,6.52
2022-10-26T20:43:27.552Z,6.50
2022-10-26T20:45:54.347Z,6.48
2022-10-26T20:48:21.616Z,6.44
2022-10-26T20:51:04.967Z,6.42
2022-10-26T20:53:39.047Z,6.36
2022-10-26T20:56:19.479Z,6.32
2022-10-26T20:58:56.292Z,6.28
2022-10-26T21:01:24.746Z,6.25
2022-10-26T21:03:53.273Z,6.21
2022-10-26T21:06:20.623Z,6.16
2022-10-26T21:08:52.132Z,6.13
2022-10-26T21:11:20.494Z,6.11
2022-10-26T21:13:48.860Z,6.09
2022-10-26T21:16:17.084Z,6.05
2022-10-26T21:18:43.599Z,6.01
2022-10-26T21:21:10.318Z,5.98
2022-10-26T21:23:38.860Z,5.95
2022-10-26T21:26:06.059Z,5.90
2022-10-26T21:28:34.999Z,5.88
2022-10-26T21:31:06.883Z,5.87
2022-10-26T21:33:33.415Z,5.85
2022-10-26T21:36:01.033Z,5.82
2022-10-26T21:38:29.064Z,5.79
2022-10-26T21:41:06.072Z,5.75
2022-10-26T21:43:33.861Z,5.76
2022-10-26T21:46:03.396Z,5.80
2022-10-26T21:48:31.763Z,5.81
2022-10-26T21:50:58.402Z,5.78
2022-10-26T21:53:27.101Z,5.75
2022-10-26T21:56:05.992Z,5.71
2022-10-26T21:58:32.557Z,5.66
2022-10-26T22:01:10.078Z,5.62
2022-10-26T22:03:37.651Z,5.57
2022-10-26T22:06:05.231Z,5.54
2022-10-26T22:08:32.203Z,5.51
2022-10-26T22:10:58.882Z,5.50
2022-10-26T22:13:25.731Z,5.48
2022-10-26T22:16:07.764Z,5.45
2022-10-26T22:18:35.197Z,5.39
2022-10-26T22:21:01.975Z,5.36
2022-10-26T22:23:28.490Z,5.36
2022-10-26T22:26:00.662Z,5.35
2022-10-26T22:28:27.085Z,5.32
2022-10-26T22:30:53.535Z,5.26
2022-10-26T22:33:20.065Z,5.21
2022-10-26T22:35:46.484Z,5.14
2022-10-26T22:38:13.041Z,5.08
2022-10-26T22:40:39.454Z,5.09
2022-10-26T22:43:05.863Z,5.09
2022-10-26T22:45:32.358Z,5.09
2022-10-26T22:47:58.982Z,5.11
2022-10-26T22:50:25.639Z,5.11
2022-10-26T22:52:52.455Z,5.08
2022-10-26T22:55:19.337Z,5.05
2022-10-26T22:57:45.812Z,5.02
2022-10-26T23:00:13.034Z,4.98
2022-10-26T23:02:39.459Z,4.94
2022-10-26T23:05:06.531Z,4.90
2022-10-26T23:07:33.056Z,4.86
2022-10-26T23:09:59.596Z,4.86
2022-10-26T23:12:26.147Z,4.85
2022-10-26T23:14:52.584Z,4.84
2022-10-26T23:17:19.120Z,4.84
2022-10-26T23:19:45.553Z,4.82
2022-10-26T23:22:12.093Z,4.79
2022-10-26T23:24:38.558Z,4.74
2022-10-26T23:27:05.098Z,4.71
2022-10-26T23:29:31.639Z,4.69
2022-10-26T23:31:58.157Z,4.67
2022-10-26T23:34:24.589Z,4.65
2022-10-26T23:36:51.138Z,4.66
2022-10-26T23:39:17.559Z,4.66
2022-10-26T23:41:43.991Z,4.67
2022-10-26T23:44:10.544Z,4.67
2022-10-26T23:46:37.195Z,4.65
2022-10-26T23:49:03.724Z,4.61
2022-10-26T23:51:30.343Z,4.60
2022-10-26T23:53:56.764Z,4.57
2022-10-26T23:56:23.224Z,4.54
2022-10-26T23:58:50.473Z,4.52
